createdAt,value
2019-06-20T00:00:30.281Z,0.00
2019-06-20T00:01:30.267Z,0.00
2019-06-20T00:02:30.257Z,0.00
2019-06-20T00:03:30.245Z,0.00
2019-06-20T00:04:30.235Z,0.00
2019-06-20T00:05:30.242Z,0.00
2019-06-20T00:06:30.212Z,0.00
2019-06-20T00:07:30.201Z,0.00
2019-06-20T00:08:30.183Z,0.00
2019-06-20T00:09:30.174Z,0.00
2019-06-20T00:10:30.158Z,0.00
2019-06-20T00:11:30.165Z,0.00
2019-06-20T00:12:30.140Z,0.00
2019-06-20T00:13:30.135Z,0.00
2019-06-20T00:14:30.114Z,0.00
2019-06-20T00:15:30.162Z,0.00
2019-06-20T00:16:30.094Z,0.00
2019-06-20T00:17:30.091Z,0.00
2019-06-20T00:18:30.064Z,0.00
2019-06-20T00:19:30.047Z,0.00
2019-06-20T00:20:30.041Z,0.00
2019-06-20T00:21:30.036Z,0.00
2019-06-20T00:22:30.019Z,0.00
2019-06-20T00:23:30.024Z,0.00
2019-06-20T00:24:29.990Z,0.00
2019-06-20T00:25:29.976Z,0.00
2019-06-20T00:26:29.965Z,0.00
2019-06-20T00:27:29.962Z,0.00
2019-06-20T00:28:29.956Z,0.00
2019-06-20T00:29:29.949Z,0.00
2019-06-20T00:30:29.926Z,0.00
2019-06-20T00:31:29.922Z,0.00
2019-06-20T00:32:29.895Z,0.00
2019-06-20T00:33:29.881Z,0.00
2019-06-20T00:34:29.873Z,0.00
2019-06-20T00:35:29.883Z,0.00
2019-06-20T00:36:29.851Z,0.00
2019-06-20T00:37:29.843Z,0.00
2019-06-20T00:38:29.829Z,0.00
2019-06-20T00:39:29.809Z,0.00
2019-06-20T00:40:29.804Z,0.00
2019-06-20T00:41:29.805Z,0.00
2019-06-20T00:42:29.783Z,0.00
2019-06-20T00:43:29.771Z,0.00
2019-06-20T00:44:29.749Z,0.00
2019-06-20T00:45:29.741Z,0.00
2019-06-20T00:46:29.738Z,0.00
2019-06-20T00:47:29.752Z,0.00
2019-06-20T00:48:29.711Z,0.00
2019-06-20T00:49:29.691Z,0.00
2019-06-20T00:50:29.683Z,0.00
2019-06-20T00:51:29.670Z,0.00
2019-06-20T00:52:29.659Z,0.00
2019-06-20T00:53:29.670Z,0.00
2019-06-20T00:54:29.631Z,0.00
2019-06-20T00:55:29.639Z,0.00
2019-06-20T00:56:29.617Z,0.00
2019-06-20T00:57:29.598Z,0.00
2019-06-20T00:58:29.588Z,0.00
2019-06-20T00:59:29.589Z,0.00
2019-06-20T01:00:29.560Z,0.00
2019-06-20T01:01:29.554Z,0.00
2019-06-20T01:02:29.536Z,0.00
2019-06-20T01:03:29.529Z,0.00
2019-06-20T01:04:29.515Z,0.00
2019-06-20T01:05:29.524Z,0.00
2019-06-20T01:06:29.492Z,0.00
2019-06-20T01:07:29.478Z,0.00
2019-06-20T01:08:29.471Z,0.00
2019-06-20T01:09:29.456Z,0.00
2019-06-20T01:10:29.441Z,0.00
2019-06-20T01:11:29.460Z,0.00
2019-06-20T01:12:29.417Z,0.00
2019-06-20T01:13:33.739Z,0.00
2019-06-20T01:14:29.397Z,0.00
2019-06-20T01:15:29.390Z,0.00
2019-06-20T01:16:29.372Z,0.00
2019-06-20T01:17:29.377Z,0.00
2019-06-20T01:18:29.349Z,0.00
2019-06-20T01:19:29.341Z,0.00
2019-06-20T01:20:29.338Z,0.00
2019-06-20T01:21:29.345Z,0.00
2019-06-20T01:22:29.303Z,0.00
2019-06-20T01:23:29.307Z,0.00
2019-06-20T01:24:29.284Z,0.00
2019-06-20T01:25:29.265Z,0.00
2019-06-20T01:26:29.254Z,0.00
2019-06-20T01:27:29.248Z,0.00
2019-06-20T01:28:29.228Z,0.00
2019-06-20T01:29:29.256Z,0.00
2019-06-20T01:30:29.214Z,0.00
2019-06-20T01:31:29.200Z,0.00
2019-06-20T01:32:29.181Z,0.00
2019-06-20T01:33:29.170Z,0.00
2019-06-20T01:34:29.168Z,0.00
2019-06-20T01:35:29.161Z,0.00
2019-06-20T01:36:29.139Z,0.00
2019-06-20T01:37:29.127Z,0.00
2019-06-20T01:38:29.111Z,0.00
2019-06-20T01:39:29.110Z,0.00
2019-06-20T01:40:29.084Z,0.00
2019-06-20T01:41:29.090Z,0.00
2019-06-20T01:42:29.070Z,0.00
2019-06-20T01:43:29.062Z,0.00
2019-06-20T01:44:29.046Z,0.00
2019-06-20T01:45:29.048Z,0.00
2019-06-20T01:46:29.012Z,0.00
2019-06-20T01:47:29.035Z,0.00
2019-06-20T01:48:28.990Z,0.00
2019-06-20T01:49:28.984Z,0.00
2019-06-20T01:50:28.964Z,0.00
2019-06-20T01:51:28.952Z,0.00
2019-06-20T01:52:28.945Z,0.00
2019-06-20T01:53:28.950Z,0.00
2019-06-20T01:54:28.928Z,0.00
2019-06-20T01:55:28.904Z,0.00
2019-06-20T01:56:28.904Z,0.00
2019-06-20T01:57:28.883Z,0.00
2019-06-20T01:58:28.868Z,0.00
2019-06-20T01:59:28.875Z,0.00
2019-06-20T02:00:28.844Z,0.00
2019-06-20T02:01:28.837Z,0.00
2019-06-20T02:02:28.822Z,0.00
2019-06-20T02:03:28.813Z,0.00
2019-06-20T02:04:28.797Z,0.00
2019-06-20T02:05:28.806Z,0.00
2019-06-20T02:06:28.775Z,0.00
2019-06-20T02:07:28.763Z,0.00
2019-06-20T02:08:28.779Z,0.00
2019-06-20T02:09:28.740Z,0.00
2019-06-20T02:10:28.730Z,0.00
2019-06-20T02:11:28.736Z,0.00
2019-06-20T02:12:28.743Z,0.00
2019-06-20T02:13:28.691Z,0.00
2019-06-20T02:14:28.696Z,0.00
2019-06-20T02:15:28.672Z,0.00
2019-06-20T02:16:28.655Z,0.00
2019-06-20T02:17:28.662Z,0.00
2019-06-20T02:18:28.660Z,0.00
2019-06-20T02:19:28.623Z,0.00
2019-06-20T02:20:28.611Z,0.00
2019-06-20T02:21:28.596Z,0.00
2019-06-20T02:22:28.601Z,0.00
2019-06-20T02:23:28.588Z,0.00
2019-06-20T02:24:28.562Z,0.00
2019-06-20T02:25:28.550Z,0.00
2019-06-20T02:26:28.540Z,0.00
2019-06-20T02:27:28.530Z,0.00
2019-06-20T02:28:28.521Z,0.00
2019-06-20T02:29:28.572Z,0.00
2019-06-20T02:30:28.498Z,0.00
2019-06-20T02:31:28.487Z,0.00
2019-06-20T02:32:28.477Z,0.00
2019-06-20T02:33:28.469Z,0.00
2019-06-20T02:34:28.444Z,0.00
2019-06-20T02:35:28.455Z,0.00
2019-06-20T02:36:28.425Z,0.00
2019-06-20T02:37:28.410Z,0.00
2019-06-20T02:38:28.400Z,0.00
2019-06-20T02:39:28.384Z,0.00
2019-06-20T02:40:28.373Z,0.00
2019-06-20T02:41:28.379Z,0.00
2019-06-20T02:42:28.355Z,0.00
2019-06-20T02:43:28.342Z,0.00
2019-06-20T02:44:30.701Z,0.00
2019-06-20T02:45:28.322Z,0.00
2019-06-20T02:46:28.371Z,0.00
2019-06-20T02:47:28.324Z,0.00
2019-06-20T02:48:28.282Z,0.00
2019-06-20T02:49:28.269Z,0.00
2019-06-20T02:50:28.255Z,0.00
2019-06-20T02:51:28.245Z,0.00
2019-06-20T02:52:28.236Z,0.00
2019-06-20T02:53:28.244Z,0.00
2019-06-20T02:54:28.210Z,0.00
2019-06-20T02:55:28.196Z,0.00
2019-06-20T02:56:28.185Z,0.00
2019-06-20T02:57:28.190Z,0.00
2019-06-20T02:58:28.168Z,0.00
2019-06-20T02:59:28.173Z,0.00
2019-06-20T03:00:28.140Z,0.00
2019-06-20T03:01:28.150Z,0.00
2019-06-20T03:02:28.128Z,0.00
2019-06-20T03:03:28.105Z,0.00
2019-06-20T03:04:28.093Z,0.00
2019-06-20T03:05:28.096Z,0.00
2019-06-20T03:06:28.064Z,0.00
2019-06-20T03:07:28.058Z,0.00
2019-06-20T03:08:28.043Z,0.00
2019-06-20T03:09:28.033Z,0.00
2019-06-20T03:10:28.022Z,0.00
2019-06-20T03:11:28.036Z,0.00
2019-06-20T03:12:27.995Z,0.00
2019-06-20T03:13:27.986Z,0.00
2019-06-20T03:14:27.973Z,0.00
2019-06-20T03:15:27.967Z,0.00
2019-06-20T03:16:27.947Z,0.00
2019-06-20T03:17:27.955Z,0.00
2019-06-20T03:18:27.933Z,0.00
2019-06-20T03:19:27.917Z,5.62
2019-06-20T03:20:27.907Z,5.62
2019-06-20T03:21:27.903Z,5.62
2019-06-20T03:22:27.883Z,5.62
2019-06-20T03:23:27.900Z,5.62
2019-06-20T03:24:27.860Z,5.62
2019-06-20T03:25:27.860Z,5.62
2019-06-20T03:26:27.843Z,5.62
2019-06-20T03:27:27.826Z,5.62
2019-06-20T03:28:27.813Z,5.62
2019-06-20T03:29:27.816Z,5.62
2019-06-20T03:30:27.824Z,5.62
2019-06-20T03:31:27.785Z,5.62
2019-06-20T03:32:27.778Z,5.62
2019-06-20T03:33:27.756Z,5.62
2019-06-20T03:34:27.741Z,5.62
2019-06-20T03:35:27.751Z,5.62
2019-06-20T03:36:27.735Z,11.25
2019-06-20T03:37:27.713Z,5.62
2019-06-20T03:38:27.695Z,5.62
2019-06-20T03:39:27.684Z,5.62
2019-06-20T03:40:27.677Z,5.62
2019-06-20T03:41:27.689Z,11.25
2019-06-20T03:42:27.650Z,11.25
2019-06-20T03:43:27.634Z,11.25
2019-06-20T03:44:27.631Z,11.25
2019-06-20T03:45:27.615Z,16.88
2019-06-20T03:46:27.605Z,16.88
2019-06-20T03:47:27.627Z,11.25
2019-06-20T03:48:27.581Z,11.25
2019-06-20T03:49:27.581Z,11.25
2019-06-20T03:50:27.556Z,11.25
2019-06-20T03:51:27.548Z,11.25
2019-06-20T03:52:27.530Z,11.25
2019-06-20T03:53:27.548Z,5.62
2019-06-20T03:54:27.526Z,5.62
2019-06-20T03:55:27.497Z,5.62
2019-06-20T03:56:27.500Z,11.25
2019-06-20T03:57:27.470Z,11.25
2019-06-20T03:58:27.473Z,11.25
2019-06-20T03:59:27.491Z,16.88
2019-06-20T04:00:27.441Z,22.50
2019-06-20T04:01:27.437Z,22.50
2019-06-20T04:02:27.475Z,28.12
2019-06-20T04:03:27.400Z,28.12
2019-06-20T04:04:27.391Z,22.50
2019-06-20T04:05:27.401Z,22.50
2019-06-20T04:06:27.373Z,22.50
2019-06-20T04:07:27.379Z,22.50
2019-06-20T04:08:27.343Z,22.50
2019-06-20T04:09:27.333Z,22.50
2019-06-20T04:10:27.331Z,22.50
2019-06-20T04:11:27.332Z,22.50
2019-06-20T04:12:27.306Z,22.50
2019-06-20T04:13:27.288Z,22.50
2019-06-20T04:14:27.304Z,28.12
2019-06-20T04:15:27.265Z,28.12
2019-06-20T04:16:27.252Z,33.75
2019-06-20T04:17:27.258Z,39.38
2019-06-20T04:18:27.230Z,45.00
2019-06-20T04:19:27.234Z,39.38
2019-06-20T04:20:27.207Z,33.75
2019-06-20T04:21:27.193Z,28.12
2019-06-20T04:22:27.187Z,33.75
2019-06-20T04:23:27.188Z,39.38
2019-06-20T04:24:28.112Z,45.00
2019-06-20T04:25:27.161Z,50.62
2019-06-20T04:26:27.142Z,56.25
2019-06-20T04:27:27.128Z,61.88
2019-06-20T04:28:27.114Z,61.88
2019-06-20T04:29:27.122Z,73.12
2019-06-20T04:30:27.094Z,78.75
2019-06-20T04:31:27.079Z,73.12
2019-06-20T04:32:27.064Z,61.88
2019-06-20T04:33:27.054Z,56.25
2019-06-20T04:34:27.046Z,78.75
2019-06-20T04:35:27.059Z,84.38
2019-06-20T04:36:27.024Z,78.75
2019-06-20T04:37:27.009Z,73.12
2019-06-20T04:38:27.006Z,67.50
2019-06-20T04:39:26.988Z,90.00
2019-06-20T04:40:26.987Z,112.50
2019-06-20T04:41:26.983Z,129.38
2019-06-20T04:42:26.955Z,135.00
2019-06-20T04:43:26.949Z,123.75
2019-06-20T04:44:26.928Z,135.00
2019-06-20T04:45:34.988Z,146.25
2019-06-20T04:46:27.928Z,140.62
2019-06-20T04:47:26.906Z,140.62
2019-06-20T04:48:26.886Z,140.62
2019-06-20T04:49:26.893Z,129.38
2019-06-20T04:50:26.860Z,112.50
2019-06-20T04:51:26.857Z,101.25
2019-06-20T04:52:26.867Z,95.62
2019-06-20T04:53:26.824Z,90.00
2019-06-20T04:54:26.816Z,90.00
2019-06-20T04:55:26.809Z,101.25
2019-06-20T04:56:26.792Z,106.88
2019-06-20T04:57:26.786Z,112.50
2019-06-20T04:58:26.789Z,135.00
2019-06-20T04:59:26.760Z,151.88
2019-06-20T05:00:26.760Z,157.50
2019-06-20T05:01:26.763Z,157.50
2019-06-20T05:02:26.723Z,168.75
2019-06-20T05:03:26.716Z,185.62
2019-06-20T05:04:26.721Z,191.25
2019-06-20T05:05:26.693Z,202.50
2019-06-20T05:06:26.675Z,219.38
2019-06-20T05:07:26.671Z,230.62
2019-06-20T05:08:26.657Z,213.75
2019-06-20T05:09:26.651Z,185.62
2019-06-20T05:10:26.651Z,180.00
2019-06-20T05:11:26.623Z,191.25
2019-06-20T05:12:26.613Z,208.12
2019-06-20T05:13:26.595Z,230.62
2019-06-20T05:14:26.587Z,258.75
2019-06-20T05:15:26.577Z,270.00
2019-06-20T05:16:26.588Z,253.12
2019-06-20T05:17:26.552Z,241.88
2019-06-20T05:18:26.563Z,225.00
2019-06-20T05:19:26.531Z,202.50
2019-06-20T05:20:26.518Z,196.88
2019-06-20T05:21:26.531Z,174.38
2019-06-20T05:22:26.523Z,163.12
2019-06-20T05:23:26.494Z,163.12
2019-06-20T05:24:26.475Z,157.50
2019-06-20T05:25:26.464Z,151.88
2019-06-20T05:26:26.451Z,180.00
2019-06-20T05:27:26.437Z,196.88
2019-06-20T05:28:26.445Z,196.88
2019-06-20T05:29:26.423Z,180.00
2019-06-20T05:30:26.403Z,157.50
2019-06-20T05:31:26.397Z,157.50
2019-06-20T05:32:26.384Z,174.38
2019-06-20T05:33:26.368Z,208.12
2019-06-20T05:34:26.410Z,247.50
2019-06-20T05:35:26.347Z,270.00
2019-06-20T05:36:26.338Z,253.12
2019-06-20T05:37:26.332Z,247.50
2019-06-20T05:38:26.324Z,225.00
2019-06-20T05:39:26.300Z,208.12
2019-06-20T05:40:26.319Z,225.00
2019-06-20T05:41:26.292Z,270.00
2019-06-20T05:42:26.271Z,275.62
2019-06-20T05:43:26.268Z,253.12
2019-06-20T05:44:26.249Z,208.12
2019-06-20T05:45:26.233Z,180.00
2019-06-20T05:46:26.271Z,168.75
2019-06-20T05:47:26.211Z,157.50
2019-06-20T05:48:26.203Z,151.88
2019-06-20T05:49:26.185Z,151.88
2019-06-20T05:50:26.175Z,146.25
2019-06-20T05:51:26.177Z,129.38
2019-06-20T05:52:26.187Z,123.75
2019-06-20T05:53:26.148Z,129.38
2019-06-20T05:54:26.132Z,135.00
2019-06-20T05:55:26.118Z,140.62
2019-06-20T05:56:26.130Z,146.25
2019-06-20T05:57:26.097Z,151.88
2019-06-20T05:58:26.119Z,157.50
2019-06-20T05:59:26.075Z,163.12
2019-06-20T06:00:26.078Z,174.38
2019-06-20T06:01:26.449Z,191.25
2019-06-20T06:02:26.041Z,202.50
2019-06-20T06:03:26.024Z,196.88
2019-06-20T06:04:26.399Z,185.62
2019-06-20T06:05:26.005Z,163.12
2019-06-20T06:06:25.998Z,151.88
2019-06-20T06:07:25.997Z,135.00
2019-06-20T06:08:25.978Z,118.12
2019-06-20T06:09:26.004Z,118.12
2019-06-20T06:10:25.988Z,118.12
2019-06-20T06:11:25.957Z,112.50
2019-06-20T06:12:25.929Z,101.25
2019-06-20T06:13:25.918Z,90.00
2019-06-20T06:14:25.899Z,90.00
2019-06-20T06:15:25.889Z,90.00
2019-06-20T06:16:28.327Z,112.50
2019-06-20T06:17:25.876Z,151.88
2019-06-20T06:18:25.855Z,168.75
2019-06-20T06:19:25.844Z,191.25
2019-06-20T06:20:25.867Z,213.75
2019-06-20T06:21:25.825Z,247.50
2019-06-20T06:22:25.852Z,281.25
2019-06-20T06:23:25.798Z,303.75
2019-06-20T06:24:25.845Z,326.25
2019-06-20T06:25:25.790Z,365.62
2019-06-20T06:26:25.781Z,410.62
2019-06-20T06:27:25.754Z,466.88
2019-06-20T06:28:25.799Z,540.00
2019-06-20T06:29:25.729Z,596.25
2019-06-20T06:30:25.735Z,641.25
2019-06-20T06:31:25.719Z,663.75
2019-06-20T06:32:39.193Z,680.62
2019-06-20T06:33:26.774Z,720.00
2019-06-20T06:34:25.685Z,759.38
2019-06-20T06:35:25.667Z,826.88
2019-06-20T06:36:25.660Z,905.62
2019-06-20T06:37:25.643Z,995.62
2019-06-20T06:38:25.632Z,1192.50
2019-06-20T06:39:25.643Z,1158.75
2019-06-20T06:40:25.619Z,1186.88
2019-06-20T06:41:25.601Z,1226.25
2019-06-20T06:42:25.582Z,1743.75
2019-06-20T06:43:25.571Z,1198.12
2019-06-20T06:44:25.563Z,1231.88
2019-06-20T06:45:25.588Z,1231.88
2019-06-20T06:46:25.549Z,1445.62
2019-06-20T06:47:25.524Z,1479.38
2019-06-20T06:48:25.514Z,2829.38
2019-06-20T06:49:25.501Z,1423.12
2019-06-20T06:50:25.507Z,1271.25
2019-06-20T06:51:25.554Z,1535.62
2019-06-20T06:52:25.502Z,1271.25
2019-06-20T06:53:25.461Z,1383.75
2019-06-20T06:54:25.473Z,2857.50
2019-06-20T06:55:27.706Z,2250.00
2019-06-20T06:56:25.438Z,1833.75
2019-06-20T06:57:25.459Z,1771.88
2019-06-20T06:58:25.415Z,1361.25
2019-06-20T06:59:25.420Z,855.00
2019-06-20T07:00:25.388Z,646.88
2019-06-20T07:01:25.381Z,534.38
2019-06-20T07:02:26.380Z,466.88
2019-06-20T07:03:25.399Z,433.12
2019-06-20T07:04:25.352Z,410.62
2019-06-20T07:05:25.336Z,393.75
2019-06-20T07:06:25.314Z,365.62
2019-06-20T07:07:25.309Z,354.38
2019-06-20T07:08:25.308Z,337.50
2019-06-20T07:09:25.363Z,331.88
2019-06-20T07:10:25.315Z,371.25
2019-06-20T07:11:25.259Z,421.88
2019-06-20T07:12:25.246Z,461.25
2019-06-20T07:13:25.268Z,540.00
2019-06-20T07:14:25.233Z,596.25
2019-06-20T07:15:25.263Z,601.88
2019-06-20T07:16:25.222Z,596.25
2019-06-20T07:17:25.244Z,618.75
2019-06-20T07:18:25.185Z,669.38
2019-06-20T07:19:25.267Z,720.00
2019-06-20T07:20:25.163Z,759.38
2019-06-20T07:21:25.187Z,810.00
2019-06-20T07:22:25.144Z,832.50
2019-06-20T07:23:25.124Z,810.00
2019-06-20T07:24:25.119Z,866.25
2019-06-20T07:25:25.101Z,1018.12
2019-06-20T07:26:25.095Z,1344.38
2019-06-20T07:27:25.285Z,1749.38
2019-06-20T07:28:25.082Z,1575.00
2019-06-20T07:29:25.087Z,2475.00
2019-06-20T07:30:25.049Z,2542.50
2019-06-20T07:31:25.051Z,3144.38
2019-06-20T07:32:25.046Z,3043.12
2019-06-20T07:33:26.276Z,2992.50
2019-06-20T07:34:25.012Z,2981.25
2019-06-20T07:35:24.991Z,2846.25
2019-06-20T07:36:24.987Z,2818.12
2019-06-20T07:37:24.999Z,2863.12
2019-06-20T07:38:24.970Z,2913.75
2019-06-20T07:39:24.980Z,2919.38
2019-06-20T07:40:24.942Z,2975.62
2019-06-20T07:41:24.933Z,1681.88
2019-06-20T07:42:24.945Z,2992.50
2019-06-20T07:43:24.924Z,2958.75
2019-06-20T07:44:24.900Z,2958.75
2019-06-20T07:45:27.315Z,2930.62
2019-06-20T07:46:24.890Z,2857.50
2019-06-20T07:47:25.767Z,2846.25
2019-06-20T07:48:24.869Z,2913.75
2019-06-20T07:49:24.842Z,2964.38
2019-06-20T07:50:24.851Z,2998.12
2019-06-20T07:51:24.829Z,3093.75
2019-06-20T07:52:24.811Z,3082.50
2019-06-20T07:53:24.800Z,3020.62
2019-06-20T07:54:24.792Z,2919.38
2019-06-20T07:55:24.785Z,3127.50
2019-06-20T07:56:24.882Z,2930.62
2019-06-20T07:57:24.775Z,2981.25
2019-06-20T07:58:24.754Z,3166.88
2019-06-20T07:59:24.735Z,3150.00
2019-06-20T08:00:24.738Z,3031.88
2019-06-20T08:01:24.734Z,3121.88
2019-06-20T08:02:24.751Z,990.00
2019-06-20T08:03:24.722Z,2148.75
2019-06-20T08:04:24.688Z,3076.88
2019-06-20T08:05:24.682Z,1051.88
2019-06-20T08:06:24.674Z,1141.88
2019-06-20T08:07:24.727Z,1980.00
2019-06-20T08:08:24.694Z,1552.50
2019-06-20T08:09:24.678Z,978.75
2019-06-20T08:10:24.635Z,1040.62
2019-06-20T08:11:24.623Z,2885.62
2019-06-20T08:12:24.658Z,3138.75
2019-06-20T08:13:24.594Z,3206.25
2019-06-20T08:14:24.663Z,3375.00
2019-06-20T08:15:24.591Z,3498.75
2019-06-20T08:16:24.594Z,1209.38
2019-06-20T08:17:34.765Z,3380.62
2019-06-20T08:18:25.561Z,973.12
2019-06-20T08:19:24.562Z,1507.50
2019-06-20T08:20:24.579Z,1198.12
2019-06-20T08:21:24.527Z,1164.38
2019-06-20T08:22:24.511Z,3341.25
2019-06-20T08:23:24.524Z,1771.88
2019-06-20T08:24:24.488Z,3290.62
2019-06-20T08:25:24.506Z,2964.38
2019-06-20T08:26:24.521Z,3487.50
2019-06-20T08:27:24.465Z,2795.62
2019-06-20T08:28:24.455Z,1861.88
2019-06-20T08:29:24.437Z,3386.25
2019-06-20T08:30:24.434Z,3498.75
2019-06-20T08:31:24.427Z,3583.12
2019-06-20T08:32:24.478Z,2930.62
2019-06-20T08:33:24.413Z,1985.62
2019-06-20T08:34:24.398Z,2953.12
2019-06-20T08:35:24.390Z,860.62
2019-06-20T08:36:24.384Z,815.62
2019-06-20T08:37:24.368Z,1321.88
2019-06-20T08:38:24.405Z,3425.62
2019-06-20T08:39:24.346Z,3245.62
2019-06-20T08:40:24.355Z,2778.75
2019-06-20T08:41:24.319Z,2205.00
2019-06-20T08:42:24.311Z,2216.25
2019-06-20T08:43:24.311Z,3763.12
2019-06-20T08:44:24.347Z,2767.50
2019-06-20T08:45:24.299Z,2255.62
2019-06-20T08:46:24.297Z,2981.25
2019-06-20T08:47:24.272Z,3178.12
2019-06-20T08:48:24.269Z,3363.75
2019-06-20T08:49:24.239Z,3465.00
2019-06-20T08:50:24.328Z,3391.88
2019-06-20T08:51:24.232Z,3335.62
2019-06-20T08:52:24.216Z,1276.88
2019-06-20T08:53:25.790Z,3211.88
2019-06-20T08:54:24.210Z,3082.50
2019-06-20T08:55:24.190Z,3116.25
2019-06-20T08:56:24.212Z,3223.12
2019-06-20T08:57:24.165Z,3414.38
2019-06-20T08:58:24.175Z,3555.00
2019-06-20T08:59:24.973Z,3678.75
2019-06-20T09:00:24.810Z,3628.12
2019-06-20T09:01:24.125Z,3555.00
2019-06-20T09:02:24.167Z,3560.62
2019-06-20T09:03:24.112Z,3622.50
2019-06-20T09:04:24.119Z,3076.88
2019-06-20T09:05:24.112Z,3588.75
2019-06-20T09:06:24.083Z,3200.62
2019-06-20T09:07:24.083Z,3166.88
2019-06-20T09:08:24.095Z,3183.75
2019-06-20T09:09:24.079Z,3189.38
2019-06-20T09:10:24.060Z,3189.38
2019-06-20T09:11:24.039Z,2930.62
2019-06-20T09:12:24.043Z,2981.25
2019-06-20T09:13:24.031Z,1361.25
2019-06-20T09:14:24.035Z,1591.88
2019-06-20T09:15:24.006Z,984.38
2019-06-20T09:16:24.841Z,3183.75
2019-06-20T09:17:23.993Z,3346.88
2019-06-20T09:18:23.985Z,1698.75
2019-06-20T09:19:23.971Z,686.25
2019-06-20T09:20:23.984Z,585.00
2019-06-20T09:21:24.014Z,590.62
2019-06-20T09:22:23.940Z,613.12
2019-06-20T09:23:23.948Z,916.88
2019-06-20T09:24:23.920Z,3060.00
2019-06-20T09:25:24.796Z,3330.00
2019-06-20T09:26:23.952Z,3532.50
2019-06-20T09:27:23.891Z,3600.00
2019-06-20T09:28:23.927Z,3577.50
2019-06-20T09:29:23.871Z,3695.62
2019-06-20T09:30:23.878Z,3718.12
2019-06-20T09:31:23.858Z,3780.00
2019-06-20T09:32:23.898Z,3661.88
2019-06-20T09:33:23.837Z,2835.00
2019-06-20T09:34:23.855Z,646.88
2019-06-20T09:35:23.860Z,613.12
2019-06-20T09:36:23.824Z,866.25
2019-06-20T09:37:23.804Z,894.38
2019-06-20T09:38:23.823Z,680.62
2019-06-20T09:39:23.784Z,675.00
2019-06-20T09:40:23.777Z,680.62
2019-06-20T09:41:23.781Z,753.75
2019-06-20T09:42:23.772Z,860.62
2019-06-20T09:43:27.628Z,3611.25
2019-06-20T09:44:23.817Z,3628.12
2019-06-20T09:45:24.256Z,3611.25
2019-06-20T09:46:23.712Z,3718.12
2019-06-20T09:47:23.716Z,1102.50
2019-06-20T09:48:23.701Z,871.88
2019-06-20T09:49:23.724Z,939.38
2019-06-20T09:50:23.707Z,1035.00
2019-06-20T09:51:23.665Z,1265.62
2019-06-20T09:52:23.661Z,1074.38
2019-06-20T09:53:23.654Z,973.12
2019-06-20T09:54:23.636Z,1080.00
2019-06-20T09:55:23.626Z,1153.12
2019-06-20T09:56:23.657Z,1192.50
2019-06-20T09:57:23.623Z,1434.38
2019-06-20T09:58:23.602Z,1085.62
2019-06-20T09:59:27.756Z,1113.75
2019-06-20T10:00:23.586Z,3594.38
2019-06-20T10:01:23.579Z,2975.62
2019-06-20T10:02:23.592Z,1164.38
2019-06-20T10:03:24.320Z,1175.62
2019-06-20T10:04:23.609Z,2430.00
2019-06-20T10:05:23.526Z,1507.50
2019-06-20T10:06:23.515Z,2165.62
2019-06-20T10:07:23.523Z,1434.38
2019-06-20T10:08:23.886Z,2829.38
2019-06-20T10:09:23.490Z,1445.62
2019-06-20T10:10:23.487Z,2418.75
2019-06-20T10:11:23.488Z,2835.00
2019-06-20T10:12:23.473Z,2835.00
2019-06-20T10:13:23.449Z,2885.62
2019-06-20T10:14:25.823Z,1170.00
2019-06-20T10:15:23.433Z,1080.00
2019-06-20T10:16:23.432Z,1338.75
2019-06-20T10:17:23.407Z,1271.25
2019-06-20T10:18:23.404Z,1366.88
2019-06-20T10:19:23.394Z,1738.12
2019-06-20T10:20:23.408Z,1130.62
2019-06-20T10:21:23.371Z,939.38
2019-06-20T10:22:24.348Z,832.50
2019-06-20T10:23:23.350Z,770.62
2019-06-20T10:24:23.352Z,731.25
2019-06-20T10:25:23.336Z,691.88
2019-06-20T10:26:23.363Z,708.75
2019-06-20T10:27:23.316Z,736.88
2019-06-20T10:28:23.328Z,708.75
2019-06-20T10:29:23.320Z,618.75
2019-06-20T10:30:23.282Z,489.38
2019-06-20T10:31:23.271Z,382.50
2019-06-20T10:32:23.282Z,315.00
2019-06-20T10:33:23.247Z,270.00
2019-06-20T10:34:23.258Z,230.62
2019-06-20T10:35:23.226Z,213.75
2019-06-20T10:36:23.224Z,230.62
2019-06-20T10:37:23.230Z,270.00
2019-06-20T10:38:23.236Z,292.50
2019-06-20T10:39:23.182Z,315.00
2019-06-20T10:40:23.182Z,337.50
2019-06-20T10:41:23.169Z,343.12
2019-06-20T10:42:23.163Z,337.50
2019-06-20T10:43:23.149Z,337.50
2019-06-20T10:44:23.170Z,331.88
2019-06-20T10:45:23.126Z,331.88
2019-06-20T10:46:23.107Z,343.12
2019-06-20T10:47:32.403Z,348.75
2019-06-20T10:48:23.090Z,376.88
2019-06-20T10:49:23.807Z,450.00
2019-06-20T10:50:23.094Z,770.62
2019-06-20T10:51:23.055Z,1850.62
2019-06-20T10:52:23.040Z,1406.25
2019-06-20T10:53:23.034Z,3195.00
2019-06-20T10:54:23.026Z,3318.75
2019-06-20T10:55:23.018Z,1513.12
2019-06-20T10:56:23.043Z,1136.25
2019-06-20T10:57:23.016Z,956.25
2019-06-20T10:58:23.005Z,860.62
2019-06-20T10:59:22.973Z,838.12
2019-06-20T11:00:30.670Z,888.75
2019-06-20T11:01:24.013Z,995.62
2019-06-20T11:02:22.960Z,995.62
2019-06-20T11:03:22.926Z,973.12
2019-06-20T11:04:22.917Z,1181.25
2019-06-20T11:05:22.926Z,1153.12
2019-06-20T11:06:22.908Z,1209.38
2019-06-20T11:07:22.924Z,3211.88
2019-06-20T11:08:22.882Z,3391.88
2019-06-20T11:09:22.885Z,2863.12
2019-06-20T11:10:22.875Z,2446.88
2019-06-20T11:11:22.845Z,1873.12
2019-06-20T11:12:22.836Z,1631.25
2019-06-20T11:13:22.877Z,1164.38
2019-06-20T11:14:22.833Z,2868.75
2019-06-20T11:15:22.816Z,1946.25
2019-06-20T11:16:22.804Z,2210.62
2019-06-20T11:17:22.793Z,1018.12
2019-06-20T11:18:22.769Z,973.12
2019-06-20T11:19:22.791Z,1147.50
2019-06-20T11:20:22.783Z,1265.62
2019-06-20T11:21:22.746Z,3723.75
2019-06-20T11:22:22.734Z,2255.62
2019-06-20T11:23:23.305Z,1113.75
2019-06-20T11:24:22.723Z,1102.50
2019-06-20T11:25:22.852Z,1080.00
2019-06-20T11:26:22.695Z,990.00
2019-06-20T11:27:22.686Z,888.75
2019-06-20T11:28:22.691Z,883.12
2019-06-20T11:29:22.659Z,1035.00
2019-06-20T11:30:22.654Z,1423.12
2019-06-20T11:31:22.846Z,3206.25
2019-06-20T11:32:22.635Z,961.88
2019-06-20T11:33:22.618Z,945.00
2019-06-20T11:34:22.638Z,1068.75
2019-06-20T11:35:22.607Z,1085.62
2019-06-20T11:36:23.318Z,1074.38
2019-06-20T11:37:22.604Z,916.88
2019-06-20T11:38:22.572Z,832.50
2019-06-20T11:39:22.590Z,1456.88
2019-06-20T11:40:22.556Z,1496.25
2019-06-20T11:41:22.540Z,1248.75
2019-06-20T11:42:22.540Z,1147.50
2019-06-20T11:43:22.561Z,1372.50
2019-06-20T11:44:22.527Z,1136.25
2019-06-20T11:45:22.503Z,1203.75
2019-06-20T11:46:23.345Z,1721.25
2019-06-20T11:47:22.477Z,1096.88
2019-06-20T11:48:22.503Z,1805.62
2019-06-20T11:49:22.474Z,1850.62
2019-06-20T11:50:22.441Z,1035.00
2019-06-20T11:51:22.429Z,939.38
2019-06-20T11:52:22.425Z,855.00
2019-06-20T11:53:22.417Z,781.88
2019-06-20T11:54:22.401Z,714.38
2019-06-20T11:55:22.844Z,641.25
2019-06-20T11:56:22.379Z,618.75
2019-06-20T11:57:22.401Z,635.62
2019-06-20T11:58:23.555Z,635.62
2019-06-20T11:59:22.359Z,618.75
2019-06-20T12:00:22.361Z,562.50
2019-06-20T12:01:32.465Z,511.88
2019-06-20T12:02:22.345Z,466.88
2019-06-20T12:03:22.303Z,421.88
2019-06-20T12:04:22.294Z,388.12
2019-06-20T12:05:22.280Z,365.62
2019-06-20T12:06:22.284Z,354.38
2019-06-20T12:07:22.293Z,343.12
2019-06-20T12:08:22.259Z,337.50
2019-06-20T12:09:22.239Z,326.25
2019-06-20T12:10:22.256Z,309.38
2019-06-20T12:11:22.216Z,275.62
2019-06-20T12:12:22.206Z,247.50
2019-06-20T12:13:22.231Z,219.38
2019-06-20T12:14:22.884Z,213.75
2019-06-20T12:15:22.325Z,225.00
2019-06-20T12:16:22.161Z,236.25
2019-06-20T12:17:22.165Z,258.75
2019-06-20T12:18:22.141Z,275.62
2019-06-20T12:19:22.149Z,281.25
2019-06-20T12:20:22.120Z,270.00
2019-06-20T12:21:22.114Z,264.38
2019-06-20T12:22:22.128Z,264.38
2019-06-20T12:23:22.218Z,264.38
2019-06-20T12:24:22.091Z,281.25
2019-06-20T12:25:22.140Z,298.12
2019-06-20T12:26:22.065Z,315.00
2019-06-20T12:27:22.051Z,348.75
2019-06-20T12:28:22.035Z,388.12
2019-06-20T12:29:22.024Z,427.50
2019-06-20T12:30:22.007Z,466.88
2019-06-20T12:31:22.045Z,478.12
2019-06-20T12:32:21.991Z,495.00
2019-06-20T12:33:21.984Z,568.12
2019-06-20T12:34:22.005Z,635.62
2019-06-20T12:35:21.958Z,686.25
2019-06-20T12:36:21.943Z,708.75
2019-06-20T12:37:21.947Z,714.38